Time;durP1;ratioP1;P1;durP2;ratioP2;P2;SDS_P1;SDS_P2;PMS_P1;PMS_P2;Temp;Humidity;BMP_temperature;BMP_pressure;BME280_temperature;BME280_humidity;BME280_pressure;Samples;Min_cycle;Max_cycle;Signal;HPM_P1;HPM_P2
2022/06/20 00:00:27;;;;;;;11.32;2.63;;;;;;;17.28;68.27;100327.03;7397402;19;20078;-66
2022/06/20 00:02:58;;;;;;;5.47;2.78;;;;;;;17.21;68.76;100363.63;7395774;19;20392;-66
2022/06/20 00:05:32;;;;;;;9.40;2.80;;;;;;;17.14;69.29;100333.13;7398350;19;20035;-66
2022/06/20 00:08:01;;;;;;;7.40;2.33;;;;;;;17.06;69.31;100350.28;7398668;19;20022;-66
2022/06/20 00:10:31;;;;;;;8.95;2.53;;;;;;;16.99;69.33;100409.84;7396910;19;20086;-66
2022/06/20 00:13:07;;;;;;;7.40;2.10;;;;;;;16.95;69.28;100437.47;7395639;19;20023;-66
2022/06/20 00:15:38;;;;;;;6.95;2.60;;;;;;;16.90;69.65;100431.53;7397738;19;20026;-66
2022/06/20 00:18:09;;;;;;;6.30;2.40;;;;;;;16.87;69.74;100505.88;7395666;19;20101;-66
2022/06/20 00:20:40;;;;;;;4.47;2.30;;;;;;;16.82;70.07;100492.88;7396688;19;20074;-65
2022/06/20 00:23:09;;;;;;;7.55;2.50;;;;;;;16.71;69.93;100497.88;7396127;19;20018;-66
2022/06/20 00:25:38;;;;;;;8.93;2.67;;;;;;;16.63;70.00;100538.00;7395637;19;20022;-66
2022/06/20 00:28:08;;;;;;;6.90;2.22;;;;;;;16.59;70.31;100510.81;7395596;19;20031;-66
2022/06/20 00:30:37;;;;;;;7.15;3.38;;;;;;;16.53;70.67;100454.63;7394825;19;20058;-66
2022/06/20 00:33:07;;;;;;;6.38;2.42;;;;;;;16.50;71.05;100436.25;7396938;19;20581;-66
2022/06/20 00:35:37;;;;;;;10.57;3.00;;;;;;;16.49;71.60;100453.94;7395259;19;20019;-66
2022/06/20 00:38:10;;;;;;;6.38;2.50;;;;;;;16.46;72.72;100517.63;7395835;19;20019;-65
2022/06/20 00:40:41;;;;;;;7.43;2.78;;;;;;;16.35;72.42;100531.44;7394824;19;20035;-65
2022/06/20 00:43:22;;;;;;;7.25;2.65;;;;;;;16.17;72.73;100551.69;7395694;19;20035;-65
2022/06/20 00:45:54;;;;;;;6.55;3.22;;;;;;;15.99;73.71;100569.31;7395543;19;20035;-66
2022/06/20 00:48:26;;;;;;;10.15;3.25;;;;;;;15.83;74.12;100582.38;7396528;19;20485;-65
2022/06/20 00:50:59;;;;;;;10.35;3.13;;;;;;;15.68;74.94;100589.19;7394599;19;20070;-65
2022/06/20 00:53:36;;;;;;;6.00;3.03;;;;;;;15.59;75.47;100595.75;7394698;19;20011;-65
2022/06/20 00:56:10;;;;;;;9.40;3.33;;;;;;;15.50;76.41;100596.19;7394226;19;20035;-65
2022/06/20 00:58:42;;;;;;;8.35;3.92;;;;;;;15.38;75.92;100571.16;7394019;19;20018;-65
2022/06/20 01:01:14;;;;;;;8.73;3.28;;;;;;;15.34;76.31;100545.78;7394709;19;20078;-66
2022/06/20 01:03:49;;;;;;;8.02;3.30;;;;;;;15.34;76.27;100534.34;7396778;19;20027;-66
2022/06/20 01:06:25;;;;;;;6.88;3.58;;;;;;;15.37;76.09;100523.66;7396708;19;20023;-66
2022/06/20 01:09:02;;;;;;;5.78;2.90;;;;;;;15.42;76.53;100498.72;7395899;19;20513;-65
2022/06/20 01:11:37;;;;;;;8.85;3.25;;;;;;;15.50;76.42;100431.44;7393994;19;20355;-66
2022/06/20 01:14:22;;;;;;;7.13;2.78;;;;;;;15.55;76.34;100401.19;7395449;19;20019;-66
2022/06/20 01:16:54;;;;;;;6.65;3.08;;;;;;;15.59;76.15;100483.88;7393837;19;20031;-66
2022/06/20 01:19:48;;;;;;;10.45;3.17;;;;;;;15.60;75.99;100488.22;7394206;19;20031;-67
2022/06/20 01:22:42;;;;;;;6.82;2.88;;;;;;;15.53;77.24;100527.31;7394617;19;20018;-66
2022/06/20 01:25:35;;;;;;;12.70;3.30;;;;;;;15.44;76.83;100528.59;7395865;19;20035;-66
2022/06/20 01:28:10;;;;;;;8.40;3.58;;;;;;;15.35;76.72;100568.66;7395303;19;20423;-66
2022/06/20 01:30:44;;;;;;;8.18;3.00;;;;;;;15.30;76.97;100594.44;7393293;19;20027;-66
2022/06/20 01:33:14;;;;;;;7.63;3.05;;;;;;;15.25;77.15;100601.69;7393400;19;20355;-66
2022/06/20 01:38:24;;;;;;;10.15;3.70;;;;;;;15.11;77.33;100581.16;7395237;19;20021;-66
2022/06/20 01:43:39;;;;;;;7.13;3.83;;;;;;;15.02;80.05;100534.84;7395111;19;20015;-66
2022/06/20 01:46:11;;;;;;;6.65;3.65;;;;;;;14.95;79.50;100494.66;7393392;19;20427;-66
2022/06/20 01:48:43;;;;;;;12.75;4.13;;;;;;;14.93;79.27;100479.81;7395368;19;20022;-66
2022/06/20 01:51:18;;;;;;;13.27;4.75;;;;;;;14.94;79.73;100542.28;7392560;19;20083;-66
2022/06/20 01:53:49;;;;;;;9.50;3.90;;;;;;;14.99;79.58;100532.38;7393358;19;20041;-66
2022/06/20 01:56:19;;;;;;;8.40;3.88;;;;;;;15.00;79.85;100465.41;7393305;19;20074;-66
2022/06/20 01:58:56;;;;;;;8.52;4.00;;;;;;;15.02;81.19;100489.09;7394617;19;20022;-66
2022/06/20 02:01:26;;;;;;;8.50;3.40;;;;;;;15.01;80.51;100540.22;7392626;19;20399;-66
2022/06/20 02:03:54;;;;;;;14.35;3.90;;;;;;;14.95;81.79;100583.59;7392340;19;20031;-66
2022/06/20 02:06:23;;;;;;;10.60;4.80;;;;;;;14.82;81.45;100593.81;7394100;19;20485;-66
2022/06/20 02:08:56;;;;;;;9.32;3.95;;;;;;;14.70;81.62;100604.88;7394537;19;20384;-65
2022/06/20 02:11:29;;;;;;;8.17;3.87;;;;;;;14.55;82.83;100601.09;7397385;19;20022;-67
2022/06/20 02:14:04;;;;;;;8.60;4.43;;;;;;;14.42;83.50;100592.78;7400442;19;20018;-66
2022/06/20 02:16:36;;;;;;;7.47;4.32;;;;;;;14.35;83.33;100544.66;7400417;19;20035;-66
2022/06/20 02:19:09;;;;;;;10.02;4.95;;;;;;;14.29;83.91;100532.59;7399604;19;20018;-66
2022/06/20 02:21:39;;;;;;;7.57;4.60;;;;;;;14.26;83.58;100551.19;7398981;19;20025;-66
2022/06/20 02:24:12;;;;;;;10.48;5.28;;;;;;;14.24;84.10;100539.84;7399262;19;20024;-66
2022/06/20 02:26:43;;;;;;;7.07;4.72;;;;;;;14.18;83.93;100566.47;7401773;19;20038;-66
2022/06/20 02:29:26;;;;;;;11.80;5.35;;;;;;;14.15;83.53;100585.94;7401611;19;20027;-65
2022/06/20 02:32:02;;;;;;;8.98;5.20;;;;;;;14.23;83.67;100574.19;7398460;19;20014;-66
2022/06/20 02:34:32;;;;;;;10.45;5.55;;;;;;;14.27;83.44;100552.06;7401914;19;20411;-66
2022/06/20 02:37:04;;;;;;;10.45;5.97;;;;;;;14.31;83.79;100530.75;7399516;19;20028;-66
2022/06/20 02:39:36;;;;;;;10.93;6.05;;;;;;;14.36;83.77;100551.66;7397446;19;20015;-67
2022/06/20 02:42:10;;;;;;;10.43;6.22;;;;;;;14.38;84.10;100552.47;7401014;19;20021;-67
2022/06/20 02:44:43;;;;;;;13.57;7.40;;;;;;;14.38;83.48;100568.31;7398395;19;20078;-67
2022/06/20 02:47:13;;;;;;;10.98;6.70;;;;;;;14.41;83.70;100519.81;7400561;19;20082;-65
2022/06/20 02:49:43;;;;;;;10.85;6.13;;;;;;;14.43;83.78;100515.31;7400013;19;20081;-65
2022/06/20 02:52:18;;;;;;;10.50;6.40;;;;;;;14.43;83.79;100545.22;7400454;19;20014;-65
2022/06/20 02:54:50;;;;;;;9.68;6.22;;;;;;;14.45;83.45;100548.66;7397454;19;20015;-65
2022/06/20 02:57:27;;;;;;;11.13;6.50;;;;;;;14.48;83.70;100506.31;7397881;19;20074;-65
2022/06/20 03:00:00;;;;;;;10.38;6.57;;;;;;;14.53;83.56;100481.50;7397561;19;20022;-66
2022/06/20 03:02:32;;;;;;;10.05;6.68;;;;;;;14.54;83.55;100502.53;7397702;19;20038;-65
2022/06/20 03:05:01;;;;;;;14.60;7.50;;;;;;;14.55;83.33;100458.53;7400352;19;20427;-67
2022/06/20 03:07:36;;;;;;;11.40;7.00;;;;;;;14.57;83.27;100417.94;7396866;19;20493;-65
2022/06/20 03:10:13;;;;;;;10.27;7.10;;;;;;;14.59;83.38;100460.09;7398487;19;20361;-65
2022/06/20 03:12:42;;;;;;;11.20;7.22;;;;;;;14.62;83.60;100471.41;7400054;19;20015;-65
2022/06/20 03:15:14;;;;;;;12.65;7.68;;;;;;;14.65;83.46;100457.25;7399501;19;20039;-67
2022/06/20 03:17:45;;;;;;;11.90;8.00;;;;;;;14.68;83.83;100477.38;7398497;19;20019;-65
2022/06/20 03:20:16;;;;;;;13.18;7.88;;;;;;;14.69;83.69;100440.34;7398692;19;20019;-65
2022/06/20 03:22:55;;;;;;;13.50;6.47;;;;;;;14.71;83.62;100421.78;7397225;19;20098;-67
2022/06/20 03:25:24;;;;;;;9.15;6.25;;;;;;;14.71;83.32;100405.94;7396631;19;20007;-66
2022/06/20 03:27:54;;;;;;;12.93;7.72;;;;;;;14.72;83.65;100415.56;7398900;19;20565;-66
2022/06/20 03:30:34;;;;;;;10.80;6.70;;;;;;;14.73;83.71;100419.94;7397593;19;20015;-66
2022/06/20 03:33:06;;;;;;;9.80;7.03;;;;;;;14.75;83.45;100445.34;7400041;19;20018;-66
2022/06/20 03:35:36;;;;;;;10.95;6.97;;;;;;;14.77;83.64;100469.03;7399274;19;20031;-64
2022/06/20 03:38:08;;;;;;;9.60;6.70;;;;;;;14.78;83.55;100433.78;7397052;19;20014;-65
2022/06/20 03:40:39;;;;;;;9.10;7.15;;;;;;;14.77;83.28;100403.91;7396170;19;20018;-65
2022/06/20 03:43:09;;;;;;;12.32;7.15;;;;;;;14.79;83.25;100399.38;7398657;19;20060;-67
2022/06/20 03:45:49;;;;;;;13.82;7.80;;;;;;;14.78;83.08;100387.09;7398971;19;20098;-66
2022/06/20 03:48:21;;;;;;;9.85;7.20;;;;;;;14.79;83.23;100417.88;7398719;19;20024;-67
2022/06/20 03:50:54;;;;;;;10.20;6.47;;;;;;;14.81;83.15;100402.81;7397274;19;20098;-66
2022/06/20 03:53:30;;;;;;;12.95;8.50;;;;;;;14.83;83.25;100411.50;7397715;19;20411;-66
2022/06/20 03:56:05;;;;;;;10.68;7.25;;;;;;;14.86;83.26;100417.59;7397688;19;20011;-66
2022/06/20 03:58:38;;;;;;;13.95;7.18;;;;;;;14.88;82.99;100405.19;7396069;19;20481;-66
2022/06/20 04:01:14;;;;;;;11.63;7.82;;;;;;;14.89;83.12;100393.72;7395892;19;20014;-66
2022/06/20 04:03:46;;;;;;;11.63;7.35;;;;;;;14.90;83.11;100392.75;7396050;19;20086;-66
2022/06/20 04:06:20;;;;;;;14.75;9.07;;;;;;;14.91;83.07;100391.84;7395151;19;20015;-65
2022/06/20 04:11:39;;;;;;;13.07;6.65;;;;;;;14.92;82.94;100399.69;7395248;19;20042;-66
2022/06/20 04:14:15;;;;;;;14.13;8.02;;;;;;;14.93;82.79;100397.91;7395691;19;20031;-65
2022/06/20 04:16:52;;;;;;;9.90;7.07;;;;;;;14.95;82.84;100377.56;7395717;19;20082;-67
2022/06/20 04:19:23;;;;;;;11.38;8.88;;;;;;;14.96;82.88;100396.00;7397668;19;20095;-67
2022/06/20 04:21:56;;;;;;;10.82;8.02;;;;;;;14.96;82.54;100400.41;7396822;19;20011;-67
2022/06/20 04:24:37;;;;;;;15.52;8.40;;;;;;;14.98;82.77;100390.63;7397587;19;20022;-67
2022/06/20 04:27:10;;;;;;;12.57;9.00;;;;;;;15.01;82.76;100398.41;7396849;19;20027;-67
2022/06/20 04:29:43;;;;;;;12.57;9.02;;;;;;;15.04;82.83;100403.56;7394359;19;20018;-67
2022/06/20 04:32:36;;;;;;;11.30;8.07;;;;;;;15.05;82.63;100404.41;7393760;19;20028;-66
2022/06/20 04:35:14;;;;;;;11.90;8.73;;;;;;;15.08;82.39;100373.44;7396587;19;20030;-67
2022/06/20 04:37:49;;;;;;;14.75;8.60;;;;;;;15.09;82.16;100348.72;7396145;19;20070;-66
2022/06/20 04:40:22;;;;;;;13.50;8.55;;;;;;;15.10;82.35;100334.59;7394873;19;20022;-67
2022/06/20 04:42:54;;;;;;;13.07;8.68;;;;;;;15.13;82.35;100330.94;7395068;19;20022;-67
2022/06/20 04:45:29;;;;;;;13.95;9.68;;;;;;;15.14;82.24;100351.16;7396797;19;20011;-67
2022/06/20 04:48:06;;;;;;;11.68;9.25;;;;;;;15.16;82.26;100370.44;7397998;19;20036;-68
2022/06/20 04:50:37;;;;;;;14.07;9.32;;;;;;;15.20;82.55;100389.63;7395329;19;20022;-66
2022/06/20 04:53:09;;;;;;;12.15;8.70;;;;;;;15.21;82.23;100384.28;7395343;19;20100;-67
2022/06/20 04:55:41;;;;;;;11.43;9.07;;;;;;;15.21;82.28;100375.50;7395704;19;20077;-67
2022/06/20 04:58:13;;;;;;;73.60;46.60;;;;;;;15.22;82.30;100359.56;7394335;19;20031;-66
2022/06/20 05:00:45;;;;;;;17.20;12.63;;;;;;;15.24;82.08;100360.38;7393371;19;20540;-66
2022/06/20 05:03:20;;;;;;;21.15;14.20;;;;;;;15.28;81.77;100379.59;7395131;19;20090;-66
2022/06/20 05:05:52;;;;;;;14.02;10.18;;;;;;;15.31;81.77;100379.41;7393065;19;20104;-66
2022/06/20 05:08:27;;;;;;;16.33;9.77;;;;;;;15.33;81.56;100372.28;7392446;19;20035;-67
2022/06/20 05:11:00;;;;;;;13.90;9.38;;;;;;;15.34;81.34;100381.91;7394357;19;20023;-67
2022/06/20 05:13:56;;;;;;;14.35;10.00;;;;;;;15.34;81.40;100410.13;7394253;19;20010;-66
2022/06/20 05:16:29;;;;;;;12.50;9.45;;;;;;;15.28;81.10;100427.16;7392796;19;20022;-66
2022/06/20 05:19:07;;;;;;;12.18;9.13;;;;;;;15.22;80.92;100448.56;7393789;19;20070;-66
2022/06/20 05:21:41;;;;;;;12.07;9.13;;;;;;;15.09;81.64;100491.41;7392367;19;20019;-66
2022/06/20 05:24:13;;;;;;;;;;;;;;;14.95;82.83;100526.34;7392586;19;20501;-66
2022/06/20 05:26:44;;;;;;;13.93;9.93;;;;;;;14.86;82.55;100626.25;7393359;19;19927;-67
2022/06/20 05:29:19;;;;;;;25.30;11.57;;;;;;;14.72;86.73;100719.25;7394693;19;20496;-66
2022/06/20 05:32:04;;;;;;;20.17;11.40;;;;;;;14.54;89.84;100747.19;7393983;19;20087;-70
2022/06/20 05:34:38;;;;;;;;;;;;;;;14.18;92.96;100714.22;7395602;19;20011;-67
2022/06/20 05:37:15;;;;;;;25.80;15.27;;;;;;;13.92;91.86;100702.84;7394306;19;19990;-68
2022/06/20 05:39:49;;;;;;;40.47;18.15;;;;;;;13.74;93.30;100641.09;7392902;19;20022;-66
2022/06/20 05:42:18;;;;;;;;;;;;;;;13.51;97.56;100640.16;7395234;19;20024;-66
2022/06/20 05:44:47;;;;;;;65.68;24.35;;;;;;;13.32;95.15;100624.09;7392328;19;19931;-67
2022/06/20 05:47:22;;;;;;;55.70;23.58;;;;;;;13.23;97.72;100611.25;7394411;19;20086;-67
2022/06/20 05:50:00;;;;;;;71.45;25.38;;;;;;;13.18;98.52;100615.78;7395375;19;20112;-67
2022/06/20 05:52:31;;;;;;;69.30;24.58;;;;;;;13.13;97.82;100584.38;7394641;19;20019;-68
2022/06/20 05:55:05;;;;;;;75.82;24.58;;;;;;;13.12;97.64;100555.44;7392914;19;20022;-67
2022/06/20 05:57:36;;;;;;;93.63;28.13;;;;;;;13.09;97.54;100511.66;7394181;19;20029;-67
2022/06/20 06:00:11;;;;;;;102.82;30.10;;;;;;;13.09;96.89;100494.97;7392489;19;20039;-65
2022/06/20 06:02:45;;;;;;;104.22;31.10;;;;;;;13.10;96.11;100465.94;7394038;19;20021;-66
2022/06/20 06:05:23;;;;;;;101.93;31.05;;;;;;;13.14;96.41;100459.66;7392711;19;20070;-66
2022/06/20 06:07:59;;;;;;;105.18;32.80;;;;;;;13.15;96.26;100428.91;7392155;19;20014;-65
2022/06/20 06:10:36;;;;;;;99.28;30.83;;;;;;;13.19;96.01;100446.28;7390800;19;20481;-67
2022/06/20 06:13:17;;;;;;;101.78;32.45;;;;;;;13.21;96.37;100410.22;7391851;19;20424;-67
2022/06/20 06:18:42;;;;;;;103.15;30.70;;;;;;;13.26;95.87;100417.97;7392392;19;20018;-66
2022/06/20 06:21:13;;;;;;;101.40;30.75;;;;;;;13.29;96.33;100433.66;7392251;19;20014;-65
2022/06/20 06:23:43;;;;;;;115.88;32.90;;;;;;;13.32;95.76;100417.69;7391734;19;20031;-66
2022/06/20 06:26:17;;;;;;;116.90;33.15;;;;;;;13.34;95.78;100405.34;7390893;19;20011;-66
2022/06/20 06:28:47;;;;;;;109.65;33.97;;;;;;;13.35;96.69;100409.69;7391075;19;20015;-65
2022/06/20 06:31:21;;;;;;;102.50;31.25;;;;;;;13.37;97.07;100421.09;7390529;19;20010;-65
2022/06/20 06:33:54;;;;;;;98.55;29.73;;;;;;;13.33;97.59;100456.31;7390726;19;20019;-66
2022/06/20 06:36:33;;;;;;;95.43;30.85;;;;;;;13.28;97.36;100445.09;7393588;19;20027;-66
2022/06/20 06:39:06;;;;;;;102.93;29.92;;;;;;;13.24;96.82;100433.81;7391337;19;20070;-66
2022/06/20 06:41:39;;;;;;;85.35;28.52;;;;;;;13.23;97.72;100425.97;7390374;19;20022;-65
2022/06/20 06:44:18;;;;;;;96.30;29.85;;;;;;;13.23;97.94;100423.34;7390580;19;20482;-66
2022/06/20 06:46:51;;;;;;;90.03;26.92;;;;;;;13.22;98.16;100432.16;7392377;19;20015;-66
2022/06/20 06:49:27;;;;;;;88.57;27.02;;;;;;;13.16;98.33;100442.00;7392796;19;20066;-66
2022/06/20 06:52:04;;;;;;;96.55;30.83;;;;;;;13.13;97.93;100423.69;7390419;19;20087;-67
2022/06/20 06:54:48;;;;;;;96.70;30.38;;;;;;;13.16;98.08;100412.19;7392080;19;20015;-67
2022/06/20 06:57:23;;;;;;;104.28;30.58;;;;;;;13.22;98.18;100437.41;7398088;19;20011;-66
2022/06/20 06:59:58;;;;;;;106.90;33.00;;;;;;;13.27;98.31;100422.28;7396774;19;20393;-66
2022/06/20 07:02:32;;;;;;;88.55;30.05;;;;;;;13.31;98.91;100414.22;7400011;19;20023;-66
2022/06/20 07:05:04;;;;;;;94.20;29.00;;;;;;;13.33;98.46;100428.22;7397916;19;20027;-66
2022/06/20 07:07:42;;;;;;;68.05;26.75;;;;;;;13.35;98.84;100422.88;7397222;19;20023;-66
2022/06/20 07:10:19;;;;;;;97.25;29.33;;;;;;;13.38;98.29;100408.75;7398157;19;20036;-67
2022/06/20 07:12:51;;;;;;;86.45;28.00;;;;;;;13.41;98.36;100379.63;7396963;19;20027;-67
2022/06/20 07:15:22;;;;;;;89.13;28.00;;;;;;;13.44;98.66;100380.38;7399602;19;20028;-67
2022/06/20 07:17:55;;;;;;;89.45;28.52;;;;;;;13.44;98.39;100396.19;7396696;19;20019;-67
2022/06/20 07:20:26;;;;;;;86.82;27.77;;;;;;;13.47;98.77;100408.38;7397147;19;20022;-67
2022/06/20 07:23:00;;;;;;;87.30;29.17;;;;;;;13.50;99.00;100422.31;7399765;19;20029;-67
2022/06/20 07:25:35;;;;;;;73.97;26.38;;;;;;;13.54;98.59;100415.13;7398089;19;20074;-67
2022/06/20 07:28:08;;;;;;;61.13;24.40;;;;;;;13.58;99.07;100418.53;7398067;19;20014;-66
2022/06/20 07:30:42;;;;;;;69.43;25.55;;;;;;;13.61;98.73;100423.66;7395409;19;20027;-66
2022/06/20 07:33:18;;;;;;;65.97;24.58;;;;;;;13.64;98.84;100424.41;7396230;19;20027;-66
2022/06/20 07:35:50;;;;;;;58.95;21.75;;;;;;;13.68;99.23;100440.94;7396225;19;20056;-66
2022/06/20 07:38:25;;;;;;;52.92;20.48;;;;;;;13.67;98.52;100466.47;7397529;19;20014;-66
2022/06/20 07:40:58;;;;;;;50.45;20.08;;;;;;;13.67;98.64;100497.22;7396318;19;20035;-67
2022/06/20 07:43:33;;;;;;;42.80;17.53;;;;;;;13.65;98.99;100502.56;7398966;19;20044;-67
2022/06/20 07:46:08;;;;;;;60.60;20.60;;;;;;;13.65;98.54;100531.56;7398685;19;20023;-68
2022/06/20 07:48:41;;;;;;;53.60;20.08;;;;;;;13.66;98.83;100553.50;7396256;19;20085;-67
2022/06/20 07:51:13;;;;;;;39.03;15.63;;;;;;;13.64;98.74;100565.91;7396220;19;20022;-67
2022/06/20 07:53:50;;;;;;;34.38;14.43;;;;;;;13.58;98.37;100560.84;7398608;19;20083;-67
2022/06/20 07:56:23;;;;;;;32.22;14.10;;;;;;;13.48;98.61;100539.25;7398488;19;20019;-66
2022/06/20 07:58:58;;;;;;;41.05;16.40;;;;;;;13.40;98.42;100542.16;7397042;19;20513;-67
2022/06/20 08:01:31;;;;;;;41.50;16.55;;;;;;;13.40;98.69;100531.63;7395750;19;20019;-67
2022/06/20 08:04:04;;;;;;;56.30;21.05;;;;;;;13.46;98.69;100528.75;7395640;19;20383;-67
2022/06/20 08:06:38;;;;;;;47.23;19.27;;;;;;;13.59;99.55;100505.44;7395437;19;20007;-66
2022/06/20 08:09:15;;;;;;;54.22;21.80;;;;;;;13.73;99.48;100480.31;7393571;19;20517;-66
2022/06/20 08:11:49;;;;;;;47.80;21.10;;;;;;;13.88;99.67;100441.94;7396107;19;20018;-66
2022/06/20 08:14:26;;;;;;;55.45;21.35;;;;;;;13.99;100.00;100395.75;7396037;19;20034;-67
2022/06/20 08:17:00;;;;;;;50.85;21.67;;;;;;;14.08;100.00;100383.97;7397067;19;20363;-66
2022/06/20 08:19:30;;;;;;;49.08;21.92;;;;;;;14.23;100.00;100418.50;7396573;19;20026;-67
2022/06/20 08:22:04;;;;;;;44.53;21.50;;;;;;;14.37;99.75;100432.00;7397125;19;20019;-67
2022/06/20 08:24:44;;;;;;;45.22;21.20;;;;;;;14.50;99.58;100413.84;7394718;19;20018;-67
2022/06/20 08:27:17;;;;;;;41.63;20.17;;;;;;;14.59;98.93;100412.59;7394706;19;20082;-68
2022/06/20 08:29:53;;;;;;;40.10;19.00;;;;;;;14.70;99.53;100417.41;7395082;19;20015;-68
2022/06/20 08:32:30;;;;;;;34.17;16.17;;;;;;;14.76;98.77;100464.69;7395019;19;20011;-67
2022/06/20 08:35:05;;;;;;;40.40;20.23;;;;;;;14.86;98.76;100479.22;7396465;19;20420;-68
2022/06/20 08:37:41;;;;;;;33.97;18.05;;;;;;;14.93;98.31;100500.94;7396893;19;20021;-68
2022/06/20 08:40:38;;;;;;;30.02;15.57;;;;;;;14.93;97.92;100506.22;7394153;19;20380;-68
2022/06/20 08:43:42;;;;;;;19.15;12.98;;;;;;;14.91;97.81;100510.69;7394898;19;20014;-67
2022/06/20 08:46:57;;;;;;;20.67;11.73;;;;;;;14.89;97.74;100505.50;7394999;19;20025;-68
2022/06/20 08:50:09;;;;;;;20.15;10.65;;;;;;;14.83;97.07;100503.94;7395375;19;20018;-68
2022/06/20 08:53:25;;;;;;;17.30;9.35;;;;;;;14.71;96.74;100507.16;7394343;19;20014;-68
2022/06/20 08:56:10;;;;;;;15.50;9.02;;;;;;;14.59;96.72;100523.47;7395010;19;20019;-69
2022/06/20 08:58:49;;;;;;;15.57;9.48;;;;;;;14.49;96.78;100534.44;7394801;19;20025;-68
2022/06/20 09:01:29;;;;;;;16.15;9.57;;;;;;;14.43;96.65;100523.25;7394691;19;20036;-67
2022/06/20 09:04:18;;;;;;;17.67;10.57;;;;;;;14.38;97.22;100504.97;7394617;19;20022;-67
2022/06/20 09:07:03;;;;;;;21.05;11.10;;;;;;;14.35;97.18;100505.09;7396179;19;20023;-67
2022/06/20 09:09:58;;;;;;;16.92;9.70;;;;;;;14.32;97.07;100502.59;7394138;19;20019;-68
2022/06/20 09:12:53;;;;;;;19.10;10.25;;;;;;;14.30;97.09;100509.69;7393860;19;20493;-67
2022/06/20 09:15:37;;;;;;;19.52;10.20;;;;;;;14.30;96.83;100492.06;7394249;19;20022;-69
2022/06/20 09:18:12;;;;;;;17.77;9.80;;;;;;;14.27;96.44;100475.53;7394786;19;20025;-69
2022/06/20 09:20:46;;;;;;;23.30;11.95;;;;;;;14.26;96.92;100493.13;7393698;19;20035;-68
2022/06/20 09:23:42;;;;;;;21.10;12.00;;;;;;;14.34;97.16;100501.59;7393760;19;20025;-68
2022/06/20 09:26:19;;;;;;;20.35;10.85;;;;;;;14.40;97.36;100502.25;7394233;19;20015;-68
2022/06/20 09:29:21;;;;;;;18.42;10.63;;;;;;;14.44;96.67;100503.84;7394751;19;20027;-70
2022/06/20 09:32:26;;;;;;;20.60;10.15;;;;;;;14.43;96.37;100513.56;7392485;19;20074;-69
2022/06/20 09:35:14;;;;;;;20.15;10.65;;;;;;;14.42;96.43;100503.91;7392990;19;20027;-68
2022/06/20 09:38:06;;;;;;;17.17;10.40;;;;;;;14.44;96.63;100491.50;7392696;19;20039;-68
2022/06/20 09:40:42;;;;;;;18.65;11.35;;;;;;;14.50;96.96;100490.41;7392898;19;20031;-69
2022/06/20 09:43:22;;;;;;;14.82;9.25;;;;;;;14.48;95.91;100501.03;7393363;19;20019;-68
2022/06/20 09:46:01;;;;;;;22.08;11.45;;;;;;;14.43;95.61;100497.72;7392199;19;20350;-67
2022/06/20 09:48:39;;;;;;;16.63;11.05;;;;;;;14.43;95.63;100503.00;7392416;19;20027;-68
2022/06/20 09:51:14;;;;;;;18.38;10.93;;;;;;;14.41;96.00;100510.13;7393420;19;20011;-68
2022/06/20 09:53:53;;;;;;;26.45;13.40;;;;;;;14.47;96.38;100509.00;7394879;19;20032;-68
2022/06/20 09:56:30;;;;;;;19.95;13.02;;;;;;;14.51;96.32;100505.31;7394826;19;20014;-68
2022/06/20 09:59:09;;;;;;;23.88;13.13;;;;;;;14.55;96.10;100517.47;7393739;19;20011;-69
2022/06/20 10:01:48;;;;;;;26.10;13.38;;;;;;;14.61;96.19;100516.34;7392870;19;20019;-68
2022/06/20 10:04:27;;;;;;;21.30;12.75;;;;;;;14.63;95.87;100520.66;7394166;19;20032;-68
2022/06/20 10:07:02;;;;;;;18.67;12.13;;;;;;;14.60;95.34;100538.38;7391672;19;20031;-67
2022/06/20 10:09:41;;;;;;;16.63;10.50;;;;;;;14.53;94.70;100555.41;7394088;19;20023;-67
2022/06/20 10:12:17;;;;;;;17.33;9.50;;;;;;;14.44;94.66;100536.38;7393179;19;20014;-67
2022/06/20 10:14:59;;;;;;;14.05;9.23;;;;;;;14.33;94.60;100531.53;7393132;19;20072;-67
2022/06/20 10:17:39;;;;;;;14.95;10.75;;;;;;;14.33;95.29;100543.88;7394086;19;20010;-67
2022/06/20 10:20:21;;;;;;;22.15;11.95;;;;;;;14.32;94.81;100553.56;7391476;19;20035;-67
2022/06/20 10:22:58;;;;;;;18.13;11.63;;;;;;;14.26;94.58;100537.97;7393523;19;20036;-67
2022/06/20 10:25:54;;;;;;;17.88;12.57;;;;;;;14.24;94.92;100528.41;7392747;19;20074;-68
2022/06/20 10:28:30;;;;;;;21.20;12.30;;;;;;;14.23;94.69;100529.31;7390362;19;20011;-67
2022/06/20 10:31:07;;;;;;;23.85;13.85;;;;;;;14.24;95.23;100544.25;7392807;19;20039;-68
2022/06/20 10:33:50;;;;;;;25.55;14.40;;;;;;;14.22;94.66;100560.16;7398318;19;20501;-68
2022/06/20 10:36:22;;;;;;;24.13;16.08;;;;;;;14.21;95.16;100555.78;7400982;19;20035;-68
2022/06/20 10:39:15;;;;;;;25.95;16.60;;;;;;;14.20;95.05;100551.41;7400162;19;20420;-68
2022/06/20 10:41:57;;;;;;;25.63;17.17;;;;;;;14.18;95.74;100550.66;7401043;19;20011;-67
2022/06/20 10:44:34;;;;;;;27.75;16.27;;;;;;;14.16;95.59;100547.19;7400214;19;20018;-69
2022/06/20 10:47:12;;;;;;;31.33;18.00;;;;;;;14.13;96.03;100558.72;7398148;19;20074;-68
2022/06/20 10:50:07;;;;;;;29.60;17.83;;;;;;;14.11;96.07;100557.91;7398618;19;20023;-68
2022/06/20 10:52:49;;;;;;;32.25;17.85;;;;;;;14.07;95.98;100568.66;7397649;19;20014;-68
2022/06/20 10:55:33;;;;;;;32.70;19.42;;;;;;;13.98;95.87;100576.00;7397488;19;20022;-68
2022/06/20 10:58:04;;;;;;;;;;;;;;;13.91;95.93;100586.84;7398281;19;20026;-69
2022/06/20 11:00:38;;;;;;;31.67;19.55;;;;;;;13.83;96.02;100590.63;7397243;19;19935;-68
2022/06/20 11:03:23;;;;;;;32.92;18.88;;;;;;;13.77;96.88;100582.97;7399576;19;20010;-68
2022/06/20 11:05:59;;;;;;;42.22;21.67;;;;;;;13.74;97.01;100580.44;7399440;19;20014;-67
2022/06/20 11:08:40;;;;;;;38.47;20.83;;;;;;;13.71;96.77;100567.41;7399937;19;20364;-68
2022/06/20 11:11:24;;;;;;;40.20;22.27;;;;;;;13.71;97.18;100570.03;7397428;19;20023;-68
2022/06/20 11:14:00;;;;;;;53.23;23.57;;;;;;;13.72;97.44;100569.09;7397850;19;20035;-69
2022/06/20 11:16:37;;;;;;;44.80;23.85;;;;;;;13.74;97.49;100577.81;7395940;19;20501;-68
2022/06/20 11:19:20;;;;;;;45.08;22.75;;;;;;;13.76;97.55;100590.94;7395203;19;20521;-68
2022/06/20 11:22:01;;;;;;;49.13;23.15;;;;;;;13.75;97.73;100600.63;7394220;19;20481;-68
2022/06/20 11:24:42;;;;;;;46.80;22.15;;;;;;;13.74;97.92;100598.06;7396260;19;20412;-69
2022/06/20 11:27:36;;;;;;;35.83;18.70;;;;;;;13.68;97.89;100604.41;7398568;19;20022;-68
2022/06/20 11:30:16;;;;;;;32.25;17.30;;;;;;;13.59;98.26;100591.56;7394254;19;20014;-68
2022/06/20 11:33:18;;;;;;;30.00;16.23;;;;;;;13.56;98.44;100595.19;7395941;19;20023;-68
2022/06/20 11:35:52;;;;;;;33.30;18.02;;;;;;;13.54;98.37;100606.69;7396053;19;20438;-68
2022/06/20 11:38:32;;;;;;;;;;;;;;;13.56;99.55;100615.38;7397579;19;20379;-68
2022/06/20 11:41:05;;;;;;;25.23;14.85;;;;;;;13.52;98.98;100615.50;7395680;19;20276;-69
2022/06/20 11:44:15;;;;;;;26.25;16.58;;;;;;;13.51;98.49;100619.06;7393805;19;20023;-71
2022/06/20 11:47:07;;;;;;;30.25;16.92;;;;;;;13.51;99.22;100629.59;7398124;19;20418;-68
2022/06/20 11:49:53;;;;;;;28.90;16.75;;;;;;;13.49;99.41;100634.06;7398407;19;20022;-68
2022/06/20 11:52:27;;;;;;;21.95;13.45;;;;;;;13.47;99.46;100628.00;7398336;19;20490;-68
2022/06/20 11:55:10;;;;;;;19.85;13.30;;;;;;;13.48;99.68;100628.84;7395899;19;20477;-68
2022/06/20 11:57:46;;;;;;;19.55;13.15;;;;;;;13.50;100.00;100637.56;7396113;19;20018;-69
2022/06/20 12:00:20;;;;;;;17.83;12.15;;;;;;;13.50;99.68;100633.16;7396267;19;20082;-68
2022/06/20 12:03:00;;;;;;;15.00;10.63;;;;;;;13.52;100.00;100647.13;7398538;19;20082;-69
2022/06/20 12:05:43;;;;;;;11.57;8.65;;;;;;;13.50;98.44;100648.97;7396508;19;20086;-69
2022/06/20 12:08:26;;;;;;;6.32;5.72;;;;;;;13.49;99.00;100655.13;7395263;19;20010;-69